Have a Safe July 4th! 

Flight Track Log - Related Links

Times and Time Zones

All times are in EDT time to prevent confusion due to time zone crossing. See the EJA839 flight status page for this flight to view local times or setup timezone preferences in your user account.

Time Position Orientation Groundspeed Altitude Reporting Facility
EDT Latitude Longitude Course Direction KTS MPH feet Rate Location/Type
Thu 06:19:46 PM 18.5333 -67.1000 285° West 210 242 3,700  Level San Juan Center
Thu 06:20:47 PM 18.5500 -67.1667 285° West 230 265 7,000 3,223 Climbing San Juan Center
Thu 06:21:47 PM 18.5833 -67.2333 298° West 230 265 10,200 3,000 Climbing San Juan Center
Thu 06:22:47 PM 18.6167 -67.2833 305° West 220 253 13,000 2,678 Climbing San Juan Center
Thu 06:23:48 PM 18.6500 -67.3333 305° West 230 265 15,600 2,678 Climbing San Juan Center
Thu 06:24:48 PM 18.7000 -67.3833 317° Northwest 240 276 18,400 2,400 Climbing San Juan Center
Thu 06:25:48 PM 18.7333 -67.4333 305° West 230 265 20,400 1,850 Climbing San Juan Center
Thu 06:26:48 PM 18.7833 -67.5000 308° West 260 299 22,100 1,736 Climbing San Juan Center
Thu 06:27:49 PM 18.8333 -67.5667 308° West 270 311 23,900 1,488 Climbing San Juan Center
Thu 06:28:49 PM 18.8833 -67.6333 308° West 290 334 25,100 1,250 Climbing San Juan Center
Thu 06:29:49 PM 18.9333 -67.7000 308° West 310 357 26,400 1,240 Climbing San Juan Center
Thu 06:30:50 PM 18.9833 -67.7667 308° West 330 380 27,600 1,091 Climbing San Juan Center
Thu 06:31:50 PM 19.0500 -67.8500 310° West 330 380 28,600 1,050 Climbing San Juan Center
Thu 06:32:50 PM 19.1000 -67.9333 302° West 330 380 29,700 1,140 Climbing San Juan Center
Thu 06:33:51 PM 19.1667 -68.0000 317° Northwest 340 391 30,900 1,190 Climbing San Juan Center
Thu 06:34:51 PM 19.2167 -68.0833 302° West 340 391 32,100 1,200 Climbing San Juan Center
Thu 06:35:51 PM 19.2833 -68.1667 310° West 340 391 33,300 1,091 Climbing San Juan Center
Thu 06:36:52 PM 19.3333 -68.2500 302° West 330 380 34,300 1,091 Climbing San Juan Center
Thu 06:37:52 PM 19.3833 -68.3167 308° West 330 380 35,500 1,150 Climbing San Juan Center
Thu 06:38:52 PM 19.4500 -68.4000 310° West 320 368 36,600 1,140 Climbing San Juan Center
Thu 06:39:53 PM 19.5000 -68.4667 309° West 310 357 37,800 1,374 Climbing San Juan Center
Thu 06:41:51 PM 19.6067 -68.6067 309° West 318 366 40,700 742 Climbing Miami Center
Thu 06:42:51 PM 19.6558 -68.6761 307° West 300 345 40,000 -350 Descending Miami Center
Thu 06:43:51 PM 19.7056 -68.7503 305° West 300 345 40,000  Level Miami Center
Thu 06:44:51 PM 19.7553 -68.8264 305° West 305 351 40,000  Level Miami Center
Thu 06:45:51 PM 19.8117 -68.9111 305° West 317 365 40,000  Level Miami Center
Thu 06:46:51 PM 19.8678 -68.9917 307° West 323 372 40,000  Level Miami Center
Thu 06:47:51 PM 19.9217 -69.0722 305° West 328 377 40,000  Level Miami Center
Thu 06:48:51 PM 19.9778 -69.1547 306° West 339 390 40,000  Level Miami Center
Thu 06:49:51 PM 20.0339 -69.2375 306° West 345 397 40,000  Level Miami Center
Thu 06:50:51 PM 20.0919 -69.3203 307° West 345 397 40,000  Level Miami Center
Thu 06:51:51 PM 20.1481 -69.4011 306° West 345 397 40,000  Level Miami Center
Thu 06:52:51 PM 20.2000 -69.4867 303° West 340 391 40,000  Level Miami Center
Thu 06:53:51 PM 20.2600 -69.5672 308° West 345 397 40,000  Level Miami Center
Thu 06:54:51 PM 20.3139 -69.6506 305° West 345 397 40,000  Level Miami Center
Thu 06:55:51 PM 20.3717 -69.7336 307° West 345 397 40,000  Level Miami Center
Thu 06:56:51 PM 20.4256 -69.8169 305° West 345 397 40,000  Level Miami Center
Thu 06:57:51 PM 20.4814 -69.9003 306° West 340 391 40,000  Level Miami Center
Thu 06:58:51 PM 20.5392 -69.9836 307° West 340 391 40,000  Level Miami Center
Thu 06:59:51 PM 20.5950 -70.0694 305° West 345 397 40,000  Level Miami Center
Thu 07:00:51 PM 20.6531 -70.1550 306° West 345 397 40,000  Level Miami Center
Thu 07:01:51 PM 20.7086 -70.2386 305° West 345 397 40,000  Level Miami Center
Thu 07:02:51 PM 20.7644 -70.3244 305° West 345 397 40,000  Level Miami Center
Thu 07:03:51 PM 20.8242 -70.4081 307° West 350 403 40,000  Level Miami Center
Thu 07:04:51 PM 20.8800 -70.4964 304° West 350 403 40,000  Level Miami Center
Thu 07:05:51 PM 20.9356 -70.5781 306° West 350 403 40,000  Level Miami Center
Thu 07:06:51 PM 20.9911 -70.6644 305° West 350 403 40,000  Level Miami Center
Thu 07:07:51 PM 21.0486 -70.7506 306° West 350 403 40,000  Level Miami Center
Thu 07:08:51 PM 21.1064 -70.8369 306° West 350 403 40,000  Level Miami Center
Thu 07:09:51 PM 21.1617 -70.9211 305° West 355 409 40,000  Level Miami Center
Thu 07:10:51 PM 21.2169 -71.0053 305° West 355 409 40,000  Level Miami Center
Thu 07:11:51 PM 21.2706 -71.0942 303° West 350 403 40,000  Level Miami Center
Thu 07:12:51 PM 21.3214 -71.1722 305° West 355 409 40,000  Level Miami Center
Thu 07:13:51 PM 21.3789 -71.2611 305° West 355 409 40,000  Level Miami Center
Thu 07:14:51 PM 21.4406 -71.3519 306° West 365 420 40,000  Level Miami Center
Thu 07:15:51 PM 21.4978 -71.4367 306° West 365 420 40,000  Level Miami Center
Thu 07:16:51 PM 21.5528 -71.5214 305° West 359 413 40,000  Level Miami Center
Thu 07:17:51 PM 21.6100 -71.6083 305° West 359 413 40,000  Level Miami Center
Thu 07:18:51 PM 21.6653 -71.6931 305° West 359 413 40,000  Level Miami Center
Thu 07:19:51 PM 21.7222 -71.7803 305° West 354 407 40,000  Level Miami Center
Thu 07:20:51 PM 21.7772 -71.8653 305° West 354 407 40,000  Level Miami Center
Thu 07:21:51 PM 21.8322 -71.9528 304° West 354 407 40,000  Level Miami Center
Thu 07:22:51 PM 21.8894 -72.0400 305° West 354 407 40,000  Level Miami Center
Thu 07:23:51 PM 21.9444 -72.1297 303° West 354 407 40,000  Level Miami Center
Thu 07:24:51 PM 22.0011 -72.2128 306° West 354 407 40,000  Level Miami Center
Thu 07:25:51 PM 22.0558 -72.3003 304° West 354 407 40,000  Level Miami Center
Thu 07:26:51 PM 22.1128 -72.3881 305° West 354 407 40,000  Level Miami Center
Thu 07:27:51 PM 22.1675 -72.4758 304° West 359 413 40,000  Level Miami Center
Thu 07:28:51 PM 22.2244 -72.5636 305° West 359 413 40,000  Level Miami Center
Thu 07:29:51 PM 22.2789 -72.6514 304° West 359 413 40,000  Level Miami Center
Thu 07:30:51 PM 22.3356 -72.7372 306° West 364 419 40,000  Level Miami Center
Thu 07:31:51 PM 22.3903 -72.8275 303° West 364 419 40,000  Level Miami Center
Thu 07:32:51 PM 22.4469 -72.9156 305° West 364 419 40,000  Level Miami Center
Thu 07:33:51 PM 22.5033 -73.0014 305° West 364 419 40,000  Level Miami Center
Thu 07:34:51 PM 22.5578 -73.0922 303° West 364 419 40,000  Level Miami Center
Thu 07:35:51 PM 22.6144 -73.1850 304° West 358 412 40,000  Level Miami Center
Thu 07:36:51 PM 22.6647 -73.2758 301° West 358 412 40,000  Level Miami Center
Thu 07:37:51 PM 22.7211 -73.3642 305° West 358 412 40,000  Level Miami Center
Thu 07:38:51 PM 22.7794 -73.4528 306° West 358 412 40,000  Level Miami Center
Thu 07:39:51 PM 22.8358 -73.5414 305° West 358 412 40,000  Level Miami Center
Thu 07:40:51 PM 22.8919 -73.6278 305° West 358 412 40,000  Level Miami Center
Thu 07:41:51 PM 22.9461 -73.7189 303° West 363 418 40,000  Level Miami Center
Thu 07:42:51 PM 23.0022 -73.8078 304° West 363 418 40,000  Level Miami Center
Thu 07:43:51 PM 23.0561 -73.8969 303° West 363 418 40,000  Level Miami Center
Thu 07:44:51 PM 23.1144 -73.9881 305° West 363 418 40,000  Level Miami Center
Thu 07:45:51 PM 23.1725 -74.0794 305° West 363 418 40,000  Level Miami Center
Thu 07:46:51 PM 23.2264 -74.1686 303° West 363 418 40,000  Level Miami Center
Thu 07:47:51 PM 23.2844 -74.2603 305° West 369 425 40,000  Level Miami Center
Thu 07:48:51 PM 23.3381 -74.3517 303° West 369 425 40,000  Level Miami Center
Thu 07:49:51 PM 23.3961 -74.4436 305° West 369 425 40,000  Level Miami Center
Thu 07:50:51 PM 23.4517 -74.5331 304° West 369 425 40,000  Level Miami Center
Thu 07:51:51 PM 23.5097 -74.6247 305° West 369 425 40,000  Level Miami Center
Thu 07:52:51 PM 23.5653 -74.7192 303° West 369 425 40,000  Level Miami Center
Thu 07:53:51 PM 23.6208 -74.8111 303° West 369 425 40,000  Level Miami Center
Thu 07:54:51 PM 23.6808 -74.9053 305° West 369 425 40,000  Level Miami Center
Thu 07:55:51 PM 23.7361 -74.9997 303° West 369 425 40,000  Level Miami Center
Thu 07:56:51 PM 23.7939 -75.0922 304° West 369 425 40,000  Level Miami Center
Thu 07:57:51 PM 23.8514 -75.1867 304° West 369 425 40,000  Level Miami Center
Thu 07:58:51 PM 23.9067 -75.2769 304° West 369 425 40,000  Level Miami Center
Thu 07:59:51 PM 23.9619 -75.3694 303° West 369 425 40,000  Level Miami Center
Thu 08:00:51 PM 24.0172 -75.4619 303° West 369 425 40,000  Level Miami Center
Thu 08:01:51 PM 24.0744 -75.5547 304° West 369 425 40,000  Level Miami Center
Thu 08:02:51 PM 24.1294 -75.6497 302° West 369 425 40,000  Level Miami Center
Thu 08:03:51 PM 24.1847 -75.7425 303° West 369 425 40,000  Level Miami Center
Thu 08:04:51 PM 24.2397 -75.8356 303° West 369 425 40,000  Level Miami Center
Thu 08:05:51 PM 24.2944 -75.9286 303° West 369 425 40,000  Level Miami Center
Thu 08:06:51 PM 24.3494 -76.0239 302° West 369 425 40,000  Level Miami Center
Thu 08:07:51 PM 24.4064 -76.1150 304° West 369 425 40,000  Level Miami Center
Thu 08:08:51 PM 24.4611 -76.2081 303° West 369 425 40,000  Level Miami Center
Thu 08:09:51 PM 24.5139 -76.2992 302° West 369 425 40,000  Level Miami Center
Thu 08:10:51 PM 24.5622 -76.3811 303° West 363 418 40,000 -100 Level Miami Center
Thu 08:11:51 PM 24.6147 -76.4747 302° West 363 418 39,800 -400 Descending Miami Center
Thu 08:12:51 PM 24.6714 -76.5661 304° West 368 423 39,200 -650 Descending Miami Center
Thu 08:13:51 PM 24.7239 -76.6553 303° West 363 418 38,500 -650 Descending Miami Center
Thu 08:14:51 PM 24.7761 -76.7444 303° West 358 412 37,900 -600 Descending Miami Center
Thu 08:15:51 PM 24.8283 -76.8336 303° West 353 406 37,300 -750 Descending Miami Center
Thu 08:16:51 PM 24.8828 -76.9253 303° West 353 406 36,400 -900 Descending Miami Center
Thu 08:17:51 PM 24.9369 -77.0192 302° West 358 412 35,500 -900 Descending Miami Center
Thu 08:18:51 PM 24.9911 -77.1133 302° West 368 423 34,600 -1,000 Descending Miami Center
Thu 08:19:51 PM 25.0475 -77.2075 303° West 368 423 33,500 -1,250 Descending Miami Center
Thu 08:20:51 PM 25.1036 -77.3017 303° West 368 423 32,100 -1,650 Descending Miami Center
Thu 08:21:51 PM 25.1619 -77.3983 304° West 374 430 30,200 -2,050 Descending Miami Center
Thu 08:22:51 PM 25.2242 -77.5136 301° West 384 442 28,000 -1,100 Descending Miami Center
Thu 08:23:51 PM 25.2822 -77.6172 302° West 390 449 28,000  Level Miami Center
Thu 08:24:51 PM 25.3422 -77.7211 303° West 395 455 28,000  Level Miami Center
Thu 08:25:51 PM 25.4019 -77.8297 301° West 402 463 28,000  Level Miami Center
Thu 08:26:51 PM 25.4642 -77.9336 304° West 407 468 28,000  Level Miami Center
Thu 08:27:51 PM 25.5239 -78.0403 302° West 407 468 28,000  Level Miami Center
Thu 08:28:51 PM 25.5836 -78.1489 301° West 407 468 28,000  Level Miami Center
Thu 08:29:51 PM 25.6453 -78.2533 303° West 412 474 28,000  Level Miami Center
Thu 08:30:51 PM 25.7047 -78.3578 302° West 407 468 28,000  Level Miami Center
Thu 08:31:51 PM 25.7622 -78.4625 301° West 407 468 28,000 -750 Level Miami Center
Thu 08:32:51 PM 25.8197 -78.5647 302° West 407 468 26,500 -2,300 Descending Miami Center
Thu 08:33:51 PM 25.8789 -78.6650 303° West 407 468 23,400 -3,050 Descending Miami Center
Thu 08:34:51 PM 25.9342 -78.7675 301° West 396 456 20,400 -1,700 Descending Miami Center
Thu 08:35:51 PM 25.9914 -78.8631 304° West 384 442 20,000 -250 Descending Miami Center
Thu 08:36:51 PM 26.0483 -78.9636 302° West 387 445 19,900 -1,200 Descending Miami Center
Thu 08:37:51 PM 26.1033 -79.0569 303° West 373 429 17,600 -2,050 Descending Miami Center
Thu 08:38:51 PM 26.1500 -79.1481 300° West 363 418 15,800 -2,400 Descending Miami Center
Thu 08:39:51 PM 26.2031 -79.2372 304° West 356 410 12,800 -2,950 Descending Miami Center
Thu 08:40:51 PM 26.2558 -79.3217 305° West 339 390 9,900 -2,650 Descending Miami Center
Thu 08:41:51 PM 26.2922 -79.3942 299° West 298 343 7,500 -2,300 Descending Miami Center
Thu 08:42:51 PM 26.3225 -79.4528 300° West 261 300 5,300 -1,250 Descending Miami Center
Thu 08:43:51 PM 26.3672 -79.5325 302° West 266 306 5,000 -150 Descending Miami Center
Thu 08:44:51 PM 26.4036 -79.5936 304° West 266 306 5,000 -400 Level Miami Center
Thu 08:45:51 PM 26.4461 -79.6689 302° West 266 306 4,200 -500 Descending Miami Center
Thu 08:46:51 PM 26.4803 -79.7325 301° West 266 306 4,000 -100 Descending Miami Center
Thu 08:47:51 PM 26.5142 -79.8169 294° West 266 306 4,000  Level Miami Center
Thu 08:48:51 PM 26.5378 -79.8825 292° West 260 299 4,000  Level Miami Center
Thu 08:49:51 PM 26.5694 -79.9644 293° West 254 292 4,000  Level Miami Center
Thu 08:50:51 PM 26.5744 -80.0344 275° West 254 292 4,000  Level Miami Center
Thu 08:51:51 PM 26.5811 -80.1089 276° West 232 267 4,000  Level Miami Center
Thu 08:53:00 PM 26.6667 -80.0833 North  Level FlightAware Approximate
Thu 09:00:00 PM 26.6832 -80.0956 North  Level Estimated
Thu 09:01:00 PM 26.6832 -80.0956 North  Level Estimated
Thu 09:02:00 PM 26.6832 -80.0956 North  Level Estimated
Thu 09:03:00 PM 26.6832 -80.0956 North  Level Estimated
Thu 09:04:00 PM 26.6832 -80.0956 North  Level Estimated
Thu 09:05:00 PM 26.6832 -80.0956 North  Level Estimated
Thu 09:06:00 PM 26.6832 -80.0956 North  Level Estimated
Thu 09:07:00 PM 26.6832 -80.0956 North  Level Estimated
Thu 09:08:00 PM 26.6832 -80.0956 North  Level Estimated

Login

Don't have an account? Register now (free) for customized features, flight alerts, and more!